sensor_id;sensor_type;location;lat;lon;timestamp;pressure;altitude;pressure_sealevel;temperature;humidity
22688;BME280;11511;51.514;7.080;2024-03-02T00:01:22;99564.00;;;7.31;nan
22688;BME280;11511;51.514;7.080;2024-03-02T00:03:47;99566.56;;;7.32;nan
22688;BME280;11511;51.514;7.080;2024-03-02T00:06:13;99563.91;;;7.34;nan
22688;BME280;11511;51.514;7.080;2024-03-02T00:08:38;99556.16;;;7.09;nan
22688;BME280;11511;51.514;7.080;2024-03-02T00:11:04;99563.28;;;7.05;nan
22688;BME280;11511;51.514;7.080;2024-03-02T00:13:30;99560.31;;;6.91;nan
22688;BME280;11511;51.514;7.080;2024-03-02T00:15:57;99562.13;;;6.89;nan
22688;BME280;11511;51.514;7.080;2024-03-02T00:18:27;99555.66;;;6.99;nan
22688;BME280;11511;51.514;7.080;2024-03-02T00:20:55;99563.09;;;7.10;nan
22688;BME280;11511;51.514;7.080;2024-03-02T00:23:22;99559.88;;;7.03;nan
22688;BME280;11511;51.514;7.080;2024-03-02T00:25:48;99560.84;;;7.23;nan
22688;BME280;11511;51.514;7.080;2024-03-02T00:33:20;99545.53;;;7.12;nan
22688;BME280;11511;51.514;7.080;2024-03-02T00:35:46;99554.19;;;7.14;nan
22688;BME280;11511;51.514;7.080;2024-03-02T00:38:12;99549.31;;;7.27;nan
22688;BME280;11511;51.514;7.080;2024-03-02T00:40:41;99547.31;;;7.33;nan
22688;BME280;11511;51.514;7.080;2024-03-02T00:43:08;99544.59;;;7.36;nan
22688;BME280;11511;51.514;7.080;2024-03-02T00:45:36;99536.56;;;7.39;nan
22688;BME280;11511;51.514;7.080;2024-03-02T00:48:05;99547.00;;;7.19;nan
22688;BME280;11511;51.514;7.080;2024-03-02T00:50:30;99544.28;;;7.22;nan
22688;BME280;11511;51.514;7.080;2024-03-02T00:52:58;99530.81;;;7.31;nan
22688;BME280;11511;51.514;7.080;2024-03-02T00:55:23;99520.31;;;7.53;nan
22688;BME280;11511;51.514;7.080;2024-03-02T00:57:49;99524.44;;;7.59;nan
22688;BME280;11511;51.514;7.080;2024-03-02T01:00:14;99525.34;;;7.58;nan
22688;BME280;11511;51.514;7.080;2024-03-02T01:02:40;99528.44;;;7.67;nan
22688;BME280;11511;51.514;7.080;2024-03-02T01:05:07;99531.53;;;7.77;nan
22688;BME280;11511;51.514;7.080;2024-03-02T01:07:33;99524.56;;;7.76;nan
22688;BME280;11511;51.514;7.080;2024-03-02T01:09:59;99524.06;;;7.88;nan
22688;BME280;11511;51.514;7.080;2024-03-02T01:12:24;99526.28;;;7.97;nan
22688;BME280;11511;51.514;7.080;2024-03-02T01:14:50;99529.03;;;7.94;nan
22688;BME280;11511;51.514;7.080;2024-03-02T01:17:15;99536.25;;;7.89;nan
22688;BME280;11511;51.514;7.080;2024-03-02T01:19:41;99529.63;;;8.01;nan
22688;BME280;11511;51.514;7.080;2024-03-02T01:22:07;99533.56;;;8.11;nan
22688;BME280;11511;51.514;7.080;2024-03-02T01:24:32;99538.53;;;8.17;nan
22688;BME280;11511;51.514;7.080;2024-03-02T01:26:57;99526.72;;;8.27;nan
22688;BME280;11511;51.514;7.080;2024-03-02T01:29:23;99533.50;;;8.33;nan
22688;BME280;11511;51.514;7.080;2024-03-02T01:31:48;99516.81;;;8.34;nan
22688;BME280;11511;51.514;7.080;2024-03-02T01:34:14;99524.38;;;8.41;nan
22688;BME280;11511;51.514;7.080;2024-03-02T01:36:39;99518.53;;;8.54;nan
22688;BME280;11511;51.514;7.080;2024-03-02T01:39:05;99522.16;;;8.51;nan
22688;BME280;11511;51.514;7.080;2024-03-02T01:41:34;99515.91;;;8.54;nan
22688;BME280;11511;51.514;7.080;2024-03-02T01:44:00;99516.38;;;8.63;nan
22688;BME280;11511;51.514;7.080;2024-03-02T01:46:25;99518.28;;;8.60;nan
22688;BME280;11511;51.514;7.080;2024-03-02T01:48:51;99509.28;;;8.46;nan
22688;BME280;11511;51.514;7.080;2024-03-02T01:51:16;99513.44;;;8.51;nan
22688;BME280;11511;51.514;7.080;2024-03-02T01:53:41;99511.03;;;8.46;nan
22688;BME280;11511;51.514;7.080;2024-03-02T01:56:07;99510.75;;;8.32;nan
22688;BME280;11511;51.514;7.080;2024-03-02T01:58:32;99500.81;;;8.40;nan
22688;BME280;11511;51.514;7.080;2024-03-02T02:00:58;99511.75;;;8.29;nan
22688;BME280;11511;51.514;7.080;2024-03-02T02:03:23;99517.91;;;8.28;nan
22688;BME280;11511;51.514;7.080;2024-03-02T02:05:48;99516.25;;;8.07;nan
22688;BME280;11511;51.514;7.080;2024-03-02T02:08:14;99505.88;;;8.04;nan
22688;BME280;11511;51.514;7.080;2024-03-02T02:10:39;99508.38;;;8.07;nan
22688;BME280;11511;51.514;7.080;2024-03-02T02:13:04;99505.88;;;8.04;nan
22688;BME280;11511;51.514;7.080;2024-03-02T02:15:30;99503.41;;;8.01;nan
22688;BME280;11511;51.514;7.080;2024-03-02T02:17:56;99500.72;;;8.02;nan
22688;BME280;11511;51.514;7.080;2024-03-02T02:20:22;99498.34;;;8.17;nan
22688;BME280;11511;51.514;7.080;2024-03-02T02:22:57;99508.41;;;8.26;nan
22688;BME280;11511;51.514;7.080;2024-03-02T02:25:22;99502.38;;;8.24;nan
22688;BME280;11511;51.514;7.080;2024-03-02T02:27:48;99507.75;;;8.21;nan
22688;BME280;11511;51.514;7.080;2024-03-02T02:30:13;99514.41;;;8.09;nan
22688;BME280;11511;51.514;7.080;2024-03-02T02:32:38;99511.75;;;8.29;nan
22688;BME280;11511;51.514;7.080;2024-03-02T02:35:04;99520.03;;;8.40;nan
22688;BME280;11511;51.514;7.080;2024-03-02T02:37:29;99517.34;;;8.42;nan
22688;BME280;11511;51.514;7.080;2024-03-02T02:39:55;99523.59;;;8.39;nan
22688;BME280;11511;51.514;7.080;2024-03-02T02:42:20;99514.53;;;8.46;nan
22688;BME280;11511;51.514;7.080;2024-03-02T02:44:45;99511.38;;;8.38;nan
22688;BME280;11511;51.514;7.080;2024-03-02T02:47:11;99511.66;;;8.51;nan
22688;BME280;11511;51.514;7.080;2024-03-02T02:49:36;99512.88;;;8.44;nan
22688;BME280;11511;51.514;7.080;2024-03-02T02:52:01;99514.53;;;8.46;nan
22688;BME280;11511;51.514;7.080;2024-03-02T02:54:27;99503.38;;;8.60;nan
22688;BME280;11511;51.514;7.080;2024-03-02T02:56:52;99503.00;;;8.49;nan
22688;BME280;11511;51.514;7.080;2024-03-02T02:59:18;99497.56;;;8.54;nan
22688;BME280;11511;51.514;7.080;2024-03-02T03:01:43;99497.19;;;8.61;nan
22688;BME280;11511;51.514;7.080;2024-03-02T03:04:09;99503.03;;;8.68;nan
22688;BME280;11511;51.514;7.080;2024-03-02T03:06:34;99500.81;;;8.59;nan
22688;BME280;11511;51.514;7.080;2024-03-02T03:09:00;99495.50;;;8.60;nan
22688;BME280;11511;51.514;7.080;2024-03-02T03:11:25;99502.31;;;8.64;nan
22688;BME280;11511;51.514;7.080;2024-03-02T03:13:52;99500.53;;;8.65;nan
22688;BME280;11511;51.514;7.080;2024-03-02T03:16:19;99496.94;;;8.67;nan
22688;BME280;11511;51.514;7.080;2024-03-02T03:18:44;99483.03;;;8.65;nan
22688;BME280;11511;51.514;7.080;2024-03-02T03:21:10;99484.88;;;8.63;nan
22688;BME280;11511;51.514;7.080;2024-03-02T03:23:35;99499.03;;;8.59;nan
22688;BME280;11511;51.514;7.080;2024-03-02T03:26:01;99493.53;;;8.65;nan
22688;BME280;11511;51.514;7.080;2024-03-02T03:28:27;99496.41;;;8.59;nan
22688;BME280;11511;51.514;7.080;2024-03-02T03:30:52;99495.50;;;8.60;nan
22688;BME280;11511;51.514;7.080;2024-03-02T03:33:18;99500.53;;;8.65;nan
22688;BME280;11511;51.514;7.080;2024-03-02T03:35:43;99499.56;;;8.67;nan
22688;BME280;11511;51.514;7.080;2024-03-02T03:38:08;99500.53;;;8.65;nan
22688;BME280;11511;51.514;7.080;2024-03-02T03:40:34;99497.84;;;8.66;nan
22688;BME280;11511;51.514;7.080;2024-03-02T03:42:59;99503.09;;;8.66;nan
22688;BME280;11511;51.514;7.080;2024-03-02T03:45:25;99497.84;;;8.66;nan
22688;BME280;11511;51.514;7.080;2024-03-02T03:47:52;99503.09;;;8.66;nan
22688;BME280;11511;51.514;7.080;2024-03-02T03:50:18;99513.88;;;8.60;nan
22688;BME280;11511;51.514;7.080;2024-03-02T03:52:45;99516.38;;;8.63;nan
22688;BME280;11511;51.514;7.080;2024-03-02T03:55:10;99509.63;;;8.58;nan
22688;BME280;11511;51.514;7.080;2024-03-02T03:57:36;99512.16;;;8.40;nan
22688;BME280;11511;51.514;7.080;2024-03-02T04:00:02;99514.63;;;8.23;nan
22688;BME280;11511;51.514;7.080;2024-03-02T04:02:27;99515.78;;;8.18;nan
22688;BME280;11511;51.514;7.080;2024-03-02T04:04:53;99518.84;;;8.27;nan
22688;BME280;11511;51.514;7.080;2024-03-02T04:07:18;99520.31;;;8.34;nan
22688;BME280;11511;51.514;7.080;2024-03-02T04:09:43;99517.47;;;8.39;nan
22688;BME280;11511;51.514;7.080;2024-03-02T04:12:09;99515.44;;;8.45;nan
22688;BME280;11511;51.514;7.080;2024-03-02T04:14:34;99519.97;;;8.42;nan
22688;BME280;11511;51.514;7.080;2024-03-02T04:16:59;99525.09;;;8.45;nan
22688;BME280;11511;51.514;7.080;2024-03-02T04:19:25;99520.31;;;8.34;nan
22688;BME280;11511;51.514;7.080;2024-03-02T04:21:51;99527.19;;;8.37;nan
22688;BME280;11511;51.514;7.080;2024-03-02T04:24:16;99523.00;;;8.33;nan
22688;BME280;11511;51.514;7.080;2024-03-02T04:26:42;99527.56;;;8.28;nan
22688;BME280;11511;51.514;7.080;2024-03-02T04:29:07;99531.53;;;8.18;nan
22688;BME280;11511;51.514;7.080;2024-03-02T04:31:33;99527.75;;;8.23;nan
22688;BME280;11511;51.514;7.080;2024-03-02T04:33:58;99528.97;;;8.16;nan
22688;BME280;11511;51.514;7.080;2024-03-02T04:36:24;99532.56;;;8.13;nan
22688;BME280;11511;51.514;7.080;2024-03-02T04:38:49;99530.53;;;8.20;nan
22688;BME280;11511;51.514;7.080;2024-03-02T04:41:15;99533.50;;;8.12;nan
22688;BME280;11511;51.514;7.080;2024-03-02T04:43:40;99535.97;;;8.15;nan
22688;BME280;11511;51.514;7.080;2024-03-02T04:46:06;99548.22;;;7.95;nan
22688;BME280;11511;51.514;7.080;2024-03-02T04:48:32;99535.41;;;7.89;nan
22688;BME280;11511;51.514;7.080;2024-03-02T04:50:57;99535.38;;;7.68;nan
22688;BME280;11511;51.514;7.080;2024-03-02T04:53:23;99527.56;;;7.46;nan
22688;BME280;11511;51.514;7.080;2024-03-02T04:55:48;99527.00;;;7.60;nan
22688;BME280;11511;51.514;7.080;2024-03-02T04:58:32;99535.59;;;7.64;nan
22688;BME280;11511;51.514;7.080;2024-03-02T05:00:57;99540.16;;;7.59;nan
22688;BME280;11511;51.514;7.080;2024-03-02T05:03:23;99548.28;;;7.53;nan
22688;BME280;11511;51.514;7.080;2024-03-02T05:05:49;99547.59;;;7.47;nan
22688;BME280;11511;51.514;7.080;2024-03-02T05:08:14;99553.75;;;7.46;nan
22688;BME280;11511;51.514;7.080;2024-03-02T05:10:41;99553.28;;;7.37;nan
22688;BME280;11511;51.514;7.080;2024-03-02T05:13:06;99541.41;;;7.28;nan
22688;BME280;11511;51.514;7.080;2024-03-02T05:15:32;99536.06;;;7.31;nan
22688;BME280;11511;51.514;7.080;2024-03-02T05:17:58;99532.53;;;7.32;nan
22688;BME280;11511;51.514;7.080;2024-03-02T05:20:24;99542.50;;;7.23;nan
22688;BME280;11511;51.514;7.080;2024-03-02T05:22:49;99537.50;;;7.17;nan
22688;BME280;11511;51.514;7.080;2024-03-02T05:25:15;99544.31;;;7.21;nan
22688;BME280;11511;51.514;7.080;2024-03-02T05:27:41;99550.78;;;7.12;nan
22688;BME280;11511;51.514;7.080;2024-03-02T05:30:06;99560.34;;;7.13;nan
22688;BME280;11511;51.514;7.080;2024-03-02T05:32:33;99563.44;;;7.01;nan
22688;BME280;11511;51.514;7.080;2024-03-02T05:34:58;99562.41;;;7.05;nan
22688;BME280;11511;51.514;7.080;2024-03-02T05:37:23;99552.28;;;6.96;nan
22688;BME280;11511;51.514;7.080;2024-03-02T05:39:49;99552.75;;;7.07;nan
22688;BME280;11511;51.514;7.080;2024-03-02T05:42:14;99547.78;;;6.99;nan
22688;BME280;11511;51.514;7.080;2024-03-02T05:44:41;99548.38;;;6.84;nan
22688;BME280;11511;51.514;7.080;2024-03-02T05:47:07;99548.19;;;6.89;nan
22688;BME280;11511;51.514;7.080;2024-03-02T05:49:34;99552.50;;;6.68;nan
22688;BME280;11511;51.514;7.080;2024-03-02T05:52:00;99555.69;;;6.53;nan
22688;BME280;11511;51.514;7.080;2024-03-02T05:54:25;99555.16;;;6.43;nan
22688;BME280;11511;51.514;7.080;2024-03-02T05:56:50;99562.69;;;6.52;nan
22688;BME280;11511;51.514;7.080;2024-03-02T05:59:16;99555.97;;;6.68;nan
22688;BME280;11511;51.514;7.080;2024-03-02T06:01:43;99559.16;;;6.53;nan
22688;BME280;11511;51.514;7.080;2024-03-02T06:04:09;99568.56;;;6.57;nan
22688;BME280;11511;51.514;7.080;2024-03-02T06:06:34;99569.78;;;6.72;nan
22688;BME280;11511;51.514;7.080;2024-03-02T06:09:01;99558.97;;;6.58;nan
22688;BME280;11511;51.514;7.080;2024-03-02T06:11:26;99556.28;;;6.59;nan
22688;BME280;11511;51.514;7.080;2024-03-02T06:13:52;99560.06;;;6.52;nan
22688;BME280;11511;51.514;7.080;2024-03-02T06:16:17;99565.78;;;6.38;nan
22688;BME280;11511;51.514;7.080;2024-03-02T06:18:43;99575.19;;;6.44;nan
22688;BME280;11511;51.514;7.080;2024-03-02T06:21:08;99580.38;;;6.21;nan
22688;BME280;11511;51.514;7.080;2024-03-02T06:23:34;99585.81;;;6.15;nan
22688;BME280;11511;51.514;7.080;2024-03-02T06:26:00;99589.88;;;5.98;nan
22688;BME280;11511;51.514;7.080;2024-03-02T06:28:27;99593.06;;;5.80;nan
22688;BME280;11511;51.514;7.080;2024-03-02T06:30:53;99591.53;;;6.01;nan
22688;BME280;11511;51.514;7.080;2024-03-02T06:33:19;99592.00;;;6.12;nan
22688;BME280;11511;51.514;7.080;2024-03-02T06:35:44;99604.38;;;5.81;nan
22688;BME280;11511;51.514;7.080;2024-03-02T06:38:10;99600.50;;;5.94;nan
22688;BME280;11511;51.514;7.080;2024-03-02T06:40:35;99608.53;;;5.86;nan
22688;BME280;11511;51.514;7.080;2024-03-02T06:43:05;99612.72;;;5.65;nan
22688;BME280;11511;51.514;7.080;2024-03-02T06:45:30;99612.31;;;6.04;nan
22688;BME280;11511;51.514;7.080;2024-03-02T06:47:56;99620.16;;;6.04;nan
22688;BME280;11511;51.514;7.080;2024-03-02T06:50:22;99623.00;;;5.98;nan
22688;BME280;11511;51.514;7.080;2024-03-02T06:52:47;99621.41;;;5.94;nan
22688;BME280;11511;51.514;7.080;2024-03-02T06:55:13;99621.25;;;5.98;nan
22688;BME280;11511;51.514;7.080;2024-03-02T06:57:38;99618.63;;;5.98;nan
22688;BME280;11511;51.514;7.080;2024-03-02T07:00:04;99630.41;;;5.84;nan
22688;BME280;11511;51.514;7.080;2024-03-02T07:02:30;99626.84;;;5.86;nan
22688;BME280;11511;51.514;7.080;2024-03-02T07:04:56;99634.53;;;6.17;nan
22688;BME280;11511;51.514;7.080;2024-03-02T07:07:21;99635.13;;;6.25;nan
22688;BME280;11511;51.514;7.080;2024-03-02T07:09:47;99640.78;;;6.13;nan
22688;BME280;11511;51.514;7.080;2024-03-02T07:12:13;99634.50;;;6.19;nan
22688;BME280;11511;51.514;7.080;2024-03-02T07:14:38;99638.56;;;6.27;nan
22688;BME280;11511;51.514;7.080;2024-03-02T07:17:33;99641.13;;;6.77;nan
22688;BME280;11511;51.514;7.080;2024-03-02T07:19:59;99640.50;;;6.94;nan
22688;BME280;11511;51.514;7.080;2024-03-02T07:22:25;99634.88;;;7.04;nan
22688;BME280;11511;51.514;7.080;2024-03-02T07:24:50;99642.25;;;7.17;nan
22688;BME280;11511;51.514;7.080;2024-03-02T07:27:16;99637.00;;;7.62;nan
22688;BME280;11511;51.514;7.080;2024-03-02T07:29:41;99639.13;;;8.16;nan
22688;BME280;11511;51.514;7.080;2024-03-02T07:32:07;99651.03;;;8.45;nan
22688;BME280;11511;51.514;7.080;2024-03-02T07:34:33;99644.41;;;8.75;nan
22688;BME280;11511;51.514;7.080;2024-03-02T07:36:58;99640.03;;;8.76;nan
22688;BME280;11511;51.514;7.080;2024-03-02T07:39:23;99645.75;;;9.04;nan
22688;BME280;11511;51.514;7.080;2024-03-02T07:41:49;99641.06;;;9.11;nan
22688;BME280;11511;51.514;7.080;2024-03-02T07:44:14;99636.56;;;9.32;nan
22688;BME280;11511;51.514;7.080;2024-03-02T07:46:43;99646.47;;;9.27;nan
22688;BME280;11511;51.514;7.080;2024-03-02T07:49:08;99643.75;;;9.09;nan
22688;BME280;11511;51.514;7.080;2024-03-02T07:51:34;99654.00;;;9.15;nan
22688;BME280;11511;51.514;7.080;2024-03-02T07:53:59;99654.91;;;9.14;nan
22688;BME280;11511;51.514;7.080;2024-03-02T07:56:24;99654.22;;;9.30;nan
22688;BME280;11511;51.514;7.080;2024-03-02T07:58:50;99652.88;;;9.21;nan
22688;BME280;11511;51.514;7.080;2024-03-02T08:01:15;99653.28;;;9.12;nan
22688;BME280;11511;51.514;7.080;2024-03-02T08:03:40;99655.84;;;9.13;nan
22688;BME280;11511;51.514;7.080;2024-03-02T08:06:06;99649.94;;;9.08;nan
22688;BME280;11511;51.514;7.080;2024-03-02T08:08:31;99659.97;;;9.00;nan
22688;BME280;11511;51.514;7.080;2024-03-02T08:10:56;99649.09;;;9.08;nan
22688;BME280;11511;51.514;7.080;2024-03-02T08:13:22;99662.94;;;9.11;nan
22688;BME280;11511;51.514;7.080;2024-03-02T08:15:47;99671.47;;;9.16;nan
22688;BME280;11511;51.514;7.080;2024-03-02T08:18:12;99666.94;;;9.20;nan
22688;BME280;11511;51.514;7.080;2024-03-02T08:20:38;99676.72;;;9.35;nan
22688;BME280;11511;51.514;7.080;2024-03-02T08:23:04;99676.78;;;9.34;nan
22688;BME280;11511;51.514;7.080;2024-03-02T08:25:30;99682.84;;;9.55;nan
22688;BME280;11511;51.514;7.080;2024-03-02T08:27:57;99686.84;;;9.62;nan
22688;BME280;11511;51.514;7.080;2024-03-02T08:30:23;99689.22;;;9.85;nan
22688;BME280;11511;51.514;7.080;2024-03-02T08:32:48;99693.69;;;10.02;nan
22688;BME280;11511;51.514;7.080;2024-03-02T08:35:14;99690.84;;;10.06;nan
22688;BME280;11511;51.514;7.080;2024-03-02T08:37:40;99696.31;;;10.21;nan
22688;BME280;11511;51.514;7.080;2024-03-02T08:40:07;99689.03;;;10.26;nan
22688;BME280;11511;51.514;7.080;2024-03-02T08:42:35;99690.97;;;10.22;nan
22688;BME280;11511;51.514;7.080;2024-03-02T08:45:02;99695.22;;;10.25;nan
22688;BME280;11511;51.514;7.080;2024-03-02T08:47:28;99687.03;;;10.48;nan
22688;BME280;11511;51.514;7.080;2024-03-02T08:49:54;99689.97;;;10.42;nan
22688;BME280;11511;51.514;7.080;2024-03-02T08:52:20;99687.03;;;10.65;nan
22688;BME280;11511;51.514;7.080;2024-03-02T08:54:46;99682.59;;;10.48;nan
22688;BME280;11511;51.514;7.080;2024-03-02T08:57:13;99691.44;;;10.47;nan
22688;BME280;11511;51.514;7.080;2024-03-02T08:59:38;99690.13;;;10.56;nan
22688;BME280;11511;51.514;7.080;2024-03-02T09:02:05;99694.28;;;10.77;nan
22688;BME280;11511;51.514;7.080;2024-03-02T09:04:30;99689.97;;;10.59;nan
22688;BME280;11511;51.514;7.080;2024-03-02T09:06:55;99695.13;;;10.78;nan
22688;BME280;11511;51.514;7.080;2024-03-02T09:09:21;99684.53;;;10.79;nan
22688;BME280;11511;51.514;7.080;2024-03-02T09:11:47;99681.06;;;10.95;nan
22688;BME280;11511;51.514;7.080;2024-03-02T09:14:12;99673.59;;;10.87;nan
22688;BME280;11511;51.514;7.080;2024-03-02T09:16:40;99677.78;;;10.91;nan
22688;BME280;11511;51.514;7.080;2024-03-02T09:19:05;99684.53;;;11.12;nan
22688;BME280;11511;51.514;7.080;2024-03-02T09:21:31;99689.06;;;10.93;nan
22688;BME280;11511;51.514;7.080;2024-03-02T09:23:56;99703.56;;;10.84;nan
22688;BME280;11511;51.514;7.080;2024-03-02T09:26:22;99696.41;;;11.04;nan
22688;BME280;11511;51.514;7.080;2024-03-02T09:28:48;99694.91;;;11.31;nan
22688;BME280;11511;51.514;7.080;2024-03-02T09:31:13;99699.31;;;11.79;nan
22688;BME280;11511;51.514;7.080;2024-03-02T09:33:38;99698.81;;;11.89;nan
22688;BME280;11511;51.514;7.080;2024-03-02T09:36:04;99705.00;;;11.88;nan
22688;BME280;11511;51.514;7.080;2024-03-02T09:38:32;99700.63;;;12.18;nan
22688;BME280;11511;51.514;7.080;2024-03-02T09:40:57;99690.53;;;12.40;nan
22688;BME280;11511;51.514;7.080;2024-03-02T09:43:23;99689.75;;;12.38;nan
22688;BME280;11511;51.514;7.080;2024-03-02T09:45:48;99703.19;;;12.19;nan
22688;BME280;11511;51.514;7.080;2024-03-02T09:48:14;99692.75;;;13.76;nan
22688;BME280;11511;51.514;7.080;2024-03-02T09:50:40;99691.97;;;15.43;nan
22688;BME280;11511;51.514;7.080;2024-03-02T09:53:06;99688.75;;;16.94;nan
22688;BME280;11511;51.514;7.080;2024-03-02T09:55:32;99696.94;;;18.35;nan
22688;BME280;11511;51.514;7.080;2024-03-02T09:57:57;99713.63;;;19.62;nan
22688;BME280;11511;51.514;7.080;2024-03-02T10:00:23;99712.00;;;19.80;nan
22688;BME280;11511;51.514;7.080;2024-03-02T10:02:50;99711.94;;;18.36;nan
22688;BME280;11511;51.514;7.080;2024-03-02T10:05:25;99702.56;;;19.15;nan
22688;BME280;11511;51.514;7.080;2024-03-02T10:08:01;99710.28;;;20.67;nan
22688;BME280;11511;51.514;7.080;2024-03-02T10:10:36;99716.03;;;21.01;nan
22688;BME280;11511;51.514;7.080;2024-03-02T10:13:12;99716.78;;;23.79;nan
22688;BME280;11511;51.514;7.080;2024-03-02T10:15:38;99717.69;;;23.62;nan
22688;BME280;11511;51.514;7.080;2024-03-02T10:18:09;99721.28;;;21.94;nan
22688;BME280;11511;51.514;7.080;2024-03-02T10:20:36;99719.16;;;22.08;nan
22688;BME280;11511;51.514;7.080;2024-03-02T10:23:15;99722.75;;;24.15;nan
22688;BME280;11511;51.514;7.080;2024-03-02T10:25:41;99712.06;;;25.29;nan
22688;BME280;11511;51.514;7.080;2024-03-02T10:28:07;99715.50;;;25.54;nan
22688;BME280;11511;51.514;7.080;2024-03-02T10:30:35;99720.50;;;27.41;nan
22688;BME280;11511;51.514;7.080;2024-03-02T10:33:01;99726.31;;;23.14;nan
22688;BME280;11511;51.514;7.080;2024-03-02T10:35:27;99719.72;;;24.02;nan
22688;BME280;11511;51.514;7.080;2024-03-02T10:37:53;99714.72;;;22.87;nan
22688;BME280;11511;51.514;7.080;2024-03-02T10:40:22;99713.06;;;23.72;nan
22688;BME280;11511;51.514;7.080;2024-03-02T10:42:50;99711.09;;;22.25;nan
22688;BME280;11511;51.514;7.080;2024-03-02T10:45:17;99712.19;;;22.86;nan
22688;BME280;11511;51.514;7.080;2024-03-02T10:47:45;99711.69;;;23.42;nan
22688;BME280;11511;51.514;7.080;2024-03-02T10:50:21;99705.72;;;21.80;49.11
22688;BME280;11511;51.514;7.080;2024-03-02T10:52:46;99701.38;;;23.04;45.36
22688;BME280;11511;51.514;7.080;2024-03-02T10:55:12;99700.53;;;23.29;45.65
22688;BME280;11511;51.514;7.080;2024-03-02T10:57:42;99690.53;;;19.51;55.29
22688;BME280;11511;51.514;7.080;2024-03-02T11:00:12;99698.28;;;22.02;49.92
22688;BME280;11511;51.514;7.080;2024-03-02T11:02:54;99687.72;;;21.90;50.41
22688;BME280;11511;51.514;7.080;2024-03-02T11:05:43;99695.00;;;22.43;47.87
22688;BME280;11511;51.514;7.080;2024-03-02T11:08:08;99681.13;;;20.35;52.74
22688;BME280;11511;51.514;7.080;2024-03-02T11:10:41;99680.53;;;19.93;52.77
22688;BME280;11511;51.514;7.080;2024-03-02T11:13:14;99682.19;;;19.84;57.86
22688;BME280;11511;51.514;7.080;2024-03-02T11:15:43;99681.53;;;20.11;57.41
22688;BME280;11511;51.514;7.080;2024-03-02T11:18:09;99675.25;;;21.54;50.71
22688;BME280;11511;51.514;7.080;2024-03-02T11:20:36;99672.34;;;21.38;54.14
22688;BME280;11511;51.514;7.080;2024-03-02T11:23:06;99684.34;;;19.50;53.66
22688;BME280;11511;51.514;7.080;2024-03-02T11:25:32;99673.50;;;19.12;59.06
22688;BME280;11511;51.514;7.080;2024-03-02T11:27:59;99671.06;;;21.05;53.86
22688;BME280;11511;51.514;7.080;2024-03-02T11:33:00;99661.28;;;20.57;53.70
22688;BME280;11511;51.514;7.080;2024-03-02T11:35:26;99668.25;;;22.51;46.75
22688;BME280;11511;51.514;7.080;2024-03-02T11:37:54;99668.06;;;23.48;45.44
22688;BME280;11511;51.514;7.080;2024-03-02T11:40:22;99657.19;;;21.56;47.44
22688;BME280;11511;51.514;7.080;2024-03-02T11:42:48;99668.09;;;21.45;47.19
22688;BME280;11511;51.514;7.080;2024-03-02T11:45:17;99670.44;;;22.91;45.85
22688;BME280;11511;51.514;7.080;2024-03-02T11:47:55;99666.94;;;21.57;44.95
22688;BME280;11511;51.514;7.080;2024-03-02T11:50:30;99670.88;;;21.25;45.47
22688;BME280;11511;51.514;7.080;2024-03-02T11:52:56;99660.94;;;21.36;46.62
22688;BME280;11511;51.514;7.080;2024-03-02T11:55:23;99661.28;;;20.57;47.53
22688;BME280;11511;51.514;7.080;2024-03-02T11:57:51;99666.81;;;22.21;46.99
22688;BME280;11511;51.514;7.080;2024-03-02T12:00:17;99644.75;;;19.65;49.77
22688;BME280;11511;51.514;7.080;2024-03-02T12:02:43;99655.69;;;19.52;52.12
22688;BME280;11511;51.514;7.080;2024-03-02T12:05:13;99651.69;;;20.35;50.10
22688;BME280;11511;51.514;7.080;2024-03-02T12:07:38;99647.63;;;21.26;47.88
22688;BME280;11511;51.514;7.080;2024-03-02T12:10:04;99647.28;;;20.82;49.78
22688;BME280;11511;51.514;7.080;2024-03-02T12:12:31;99645.78;;;20.60;50.01
22688;BME280;11511;51.514;7.080;2024-03-02T12:14:56;99636.47;;;19.97;50.78
22688;BME280;11511;51.514;7.080;2024-03-02T12:17:22;99637.91;;;19.42;52.35
22688;BME280;11511;51.514;7.080;2024-03-02T12:19:48;99636.22;;;20.00;53.19
22688;BME280;11511;51.514;7.080;2024-03-02T12:22:14;99633.31;;;19.13;53.54
22688;BME280;11511;51.514;7.080;2024-03-02T12:24:41;99634.34;;;17.20;62.13
22688;BME280;11511;51.514;7.080;2024-03-02T12:27:07;99629.47;;;17.70;64.33
22688;BME280;11511;51.514;7.080;2024-03-02T12:29:33;99626.94;;;16.79;66.44
22688;BME280;11511;51.514;7.080;2024-03-02T12:31:59;99621.75;;;16.67;75.53
22688;BME280;11511;51.514;7.080;2024-03-02T12:34:27;99622.03;;;16.40;79.65
22688;BME280;11511;51.514;7.080;2024-03-02T12:36:53;99610.47;;;16.17;78.09
22688;BME280;11511;51.514;7.080;2024-03-02T12:39:19;99610.69;;;17.60;76.66
22688;BME280;11511;51.514;7.080;2024-03-02T12:41:48;99615.72;;;17.20;73.40
22688;BME280;11511;51.514;7.080;2024-03-02T12:44:16;99604.34;;;17.07;78.47
22688;BME280;11511;51.514;7.080;2024-03-02T12:46:41;99603.47;;;17.40;76.95
22688;BME280;11511;51.514;7.080;2024-03-02T12:49:08;99600.59;;;17.21;76.94
22688;BME280;11511;51.514;7.080;2024-03-02T12:51:35;99594.44;;;17.20;75.53
22688;BME280;11511;51.514;7.080;2024-03-02T12:54:01;99598.75;;;17.44;74.89
22688;BME280;11511;51.514;7.080;2024-03-02T12:56:27;99597.06;;;16.18;79.27
22688;BME280;11511;51.514;7.080;2024-03-02T12:58:53;99586.00;;;16.47;83.07
22688;BME280;11511;51.514;7.080;2024-03-02T13:01:18;99585.78;;;16.50;81.85
22688;BME280;11511;51.514;7.080;2024-03-02T13:03:45;99591.69;;;15.72;89.17
22688;BME280;11511;51.514;7.080;2024-03-02T13:06:10;99583.75;;;16.53;85.03
22688;BME280;11511;51.514;7.080;2024-03-02T13:08:36;99578.84;;;15.90;88.08
22688;BME280;11511;51.514;7.080;2024-03-02T13:11:02;99584.66;;;15.84;91.84
22688;BME280;11511;51.514;7.080;2024-03-02T13:13:31;99579.03;;;15.76;89.89
22688;BME280;11511;51.514;7.080;2024-03-02T13:15:57;99579.41;;;16.17;88.56
22688;BME280;11511;51.514;7.080;2024-03-02T13:18:23;99575.72;;;15.85;91.90
22688;BME280;11511;51.514;7.080;2024-03-02T13:20:49;99581.25;;;15.82;96.04
22688;BME280;11511;51.514;7.080;2024-03-02T13:23:14;99577.44;;;15.49;97.43
22688;BME280;11511;51.514;7.080;2024-03-02T13:25:40;99581.25;;;15.09;97.44
22688;BME280;11511;51.514;7.080;2024-03-02T13:28:06;99573.25;;;14.85;100.00